sensor_id;sensor_type;location;lat;lon;timestamp;pressure;altitude;pressure_sealevel;temperature;humidity
15694;BME280;7947;48.834;9.132;2022-07-29T00:02:58;97997.34;;;21.97;72.11
15694;BME280;7947;48.834;9.132;2022-07-29T00:06:29;97984.44;;;21.97;72.59
15694;BME280;7947;48.834;9.132;2022-07-29T00:09:45;97988.13;;;21.89;72.86
15694;BME280;7947;48.834;9.132;2022-07-29T00:13:11;97985.09;;;21.91;72.21
15694;BME280;7947;48.834;9.132;2022-07-29T00:20:40;97976.69;;;21.84;72.83
15694;BME280;7947;48.834;9.132;2022-07-29T00:24:18;97975.47;;;21.81;72.76
15694;BME280;7947;48.834;9.132;2022-07-29T00:28:09;97982.09;;;21.68;73.21
15694;BME280;7947;48.834;9.132;2022-07-29T00:31:38;97983.16;;;21.64;73.58
15694;BME280;7947;48.834;9.132;2022-07-29T00:35:05;97975.94;;;21.55;73.97
15694;BME280;7947;48.834;9.132;2022-07-29T00:39:02;97977.06;;;21.54;74.28
15694;BME280;7947;48.834;9.132;2022-07-29T00:42:17;97970.38;;;21.52;74.75
15694;BME280;7947;48.834;9.132;2022-07-29T00:45:58;97967.66;;;21.52;74.89
15694;BME280;7947;48.834;9.132;2022-07-29T00:49:17;97966.69;;;21.44;74.98
15694;BME280;7947;48.834;9.132;2022-07-29T00:52:58;97973.16;;;21.40;75.34
15694;BME280;7947;48.834;9.132;2022-07-29T00:56:16;97964.00;;;21.32;75.70
15694;BME280;7947;48.834;9.132;2022-07-29T01:00:09;97958.34;;;21.25;75.67
15694;BME280;7947;48.834;9.132;2022-07-29T01:03:49;97958.59;;;21.20;76.10
15694;BME280;7947;48.834;9.132;2022-07-29T01:07:11;97945.09;;;21.12;76.55
15694;BME280;7947;48.834;9.132;2022-07-29T01:10:29;97952.28;;;21.04;77.13
15694;BME280;7947;48.834;9.132;2022-07-29T01:13:55;97944.25;;;20.96;76.85
15694;BME280;7947;48.834;9.132;2022-07-29T01:17:14;97941.41;;;20.92;77.15
15694;BME280;7947;48.834;9.132;2022-07-29T01:20:57;97947.34;;;20.82;77.51
15694;BME280;7947;48.834;9.132;2022-07-29T01:24:46;97942.38;;;20.72;77.55
15694;BME280;7947;48.834;9.132;2022-07-29T01:29:09;97941.47;;;20.68;78.01
15694;BME280;7947;48.834;9.132;2022-07-29T01:32:52;97942.75;;;20.58;78.19
15694;BME280;7947;48.834;9.132;2022-07-29T01:36:17;97945.03;;;20.56;78.40
15694;BME280;7947;48.834;9.132;2022-07-29T01:40:01;97946.63;;;20.57;79.03
15694;BME280;7947;48.834;9.132;2022-07-29T01:43:44;97945.38;;;20.55;78.49
15694;BME280;7947;48.834;9.132;2022-07-29T01:47:42;97932.50;;;20.67;78.47
15694;BME280;7947;48.834;9.132;2022-07-29T01:51:02;97934.56;;;20.71;78.37
15694;BME280;7947;48.834;9.132;2022-07-29T01:54:29;97938.94;;;20.75;78.08
15694;BME280;7947;48.834;9.132;2022-07-29T01:58:01;97939.19;;;20.70;78.05
15694;BME280;7947;48.834;9.132;2022-07-29T02:01:19;97936.13;;;20.72;78.15
15694;BME280;7947;48.834;9.132;2022-07-29T02:05:21;97934.66;;;20.74;77.63
15694;BME280;7947;48.834;9.132;2022-07-29T02:09:19;97930.94;;;20.66;77.40
15694;BME280;7947;48.834;9.132;2022-07-29T02:12:39;97921.41;;;20.60;77.96
15694;BME280;7947;48.834;9.132;2022-07-29T02:16:00;97924.94;;;20.61;77.44
15694;BME280;7947;48.834;9.132;2022-07-29T02:23:35;97917.22;;;20.51;77.60
15694;BME280;7947;48.834;9.132;2022-07-29T02:27:12;97920.19;;;20.46;77.71
15694;BME280;7947;48.834;9.132;2022-07-29T02:30:42;97918.41;;;20.38;77.71
15694;BME280;7947;48.834;9.132;2022-07-29T02:34:16;97916.34;;;20.35;78.43
15694;BME280;7947;48.834;9.132;2022-07-29T02:38:05;97923.38;;;20.36;78.37
15694;BME280;7947;48.834;9.132;2022-07-29T02:42:05;97934.75;;;20.38;78.37
15694;BME280;7947;48.834;9.132;2022-07-29T02:45:19;97930.31;;;20.33;78.73
15694;BME280;7947;48.834;9.132;2022-07-29T02:48:50;97929.97;;;20.35;78.95
15694;BME280;7947;48.834;9.132;2022-07-29T02:51:59;97935.06;;;20.36;79.43
15694;BME280;7947;48.834;9.132;2022-07-29T02:55:19;97935.84;;;20.37;78.80
15694;BME280;7947;48.834;9.132;2022-07-29T02:59:11;97933.38;;;20.32;79.01
15694;BME280;7947;48.834;9.132;2022-07-29T03:03:00;97935.75;;;20.21;79.67
15694;BME280;7947;48.834;9.132;2022-07-29T03:06:24;97936.31;;;20.15;79.56
15694;BME280;7947;48.834;9.132;2022-07-29T03:09:58;97936.97;;;20.12;79.80
15694;BME280;7947;48.834;9.132;2022-07-29T03:13:47;97946.31;;;20.11;80.24
15694;BME280;7947;48.834;9.132;2022-07-29T03:17:29;97940.28;;;20.17;79.80
15694;BME280;7947;48.834;9.132;2022-07-29T03:21:28;97930.97;;;20.06;80.78
15694;BME280;7947;48.834;9.132;2022-07-29T03:24:49;97934.97;;;20.09;81.01
15694;BME280;7947;48.834;9.132;2022-07-29T03:28:23;97936.31;;;20.15;80.90
15694;BME280;7947;48.834;9.132;2022-07-29T03:31:43;97935.50;;;20.14;81.13
15694;BME280;7947;48.834;9.132;2022-07-29T03:35:04;97935.50;;;20.14;80.96
15694;BME280;7947;48.834;9.132;2022-07-29T03:38:36;97943.34;;;20.16;80.72
15694;BME280;7947;48.834;9.132;2022-07-29T03:42:00;97942.44;;;20.12;81.03
15694;BME280;7947;48.834;9.132;2022-07-29T03:49:18;97946.31;;;20.11;80.96
15694;BME280;7947;48.834;9.132;2022-07-29T03:52:58;97948.13;;;20.07;81.06
15694;BME280;7947;48.834;9.132;2022-07-29T03:56:07;97950.03;;;20.06;81.19
15694;BME280;7947;48.834;9.132;2022-07-29T03:59:25;97936.78;;;20.05;81.33
15694;BME280;7947;48.834;9.132;2022-07-29T04:02:57;97942.22;;;20.05;81.25
15694;BME280;7947;48.834;9.132;2022-07-29T04:06:25;97941.75;;;20.03;81.29
15694;BME280;7947;48.834;9.132;2022-07-29T04:10:09;97940.03;;;19.98;82.00
15694;BME280;7947;48.834;9.132;2022-07-29T04:13:48;97936.22;;;19.99;82.01
15694;BME280;7947;48.834;9.132;2022-07-29T04:17:20;97944.72;;;19.86;81.86
15694;BME280;7947;48.834;9.132;2022-07-29T04:20:41;97953.06;;;19.80;82.46
15694;BME280;7947;48.834;9.132;2022-07-29T04:24:06;97950.59;;;19.88;82.06
15694;BME280;7947;48.834;9.132;2022-07-29T04:27:49;97957.16;;;19.87;82.25
15694;BME280;7947;48.834;9.132;2022-07-29T04:31:24;97951.72;;;19.87;82.22
15694;BME280;7947;48.834;9.132;2022-07-29T04:34:53;97951.38;;;19.88;82.12
15694;BME280;7947;48.834;9.132;2022-07-29T04:41:04;97958.78;;;19.88;82.23
15694;BME280;7947;48.834;9.132;2022-07-29T04:44:09;97955.81;;;19.93;82.44
15694;BME280;7947;48.834;9.132;2022-07-29T04:47:12;97957.53;;;19.97;82.76
15694;BME280;7947;48.834;9.132;2022-07-29T04:50:15;97948.31;;;20.02;82.93
15694;BME280;7947;48.834;9.132;2022-07-29T04:53:18;97949.22;;;20.06;82.54
15694;BME280;7947;48.834;9.132;2022-07-29T04:56:21;97944.94;;;20.05;82.63
15694;BME280;7947;48.834;9.132;2022-07-29T04:59:25;97949.03;;;20.11;82.32
15694;BME280;7947;48.834;9.132;2022-07-29T05:02:28;97947.22;;;20.15;82.30
15694;BME280;7947;48.834;9.132;2022-07-29T05:05:31;97949.16;;;20.26;81.90
15694;BME280;7947;48.834;9.132;2022-07-29T05:08:34;97957.44;;;20.30;81.55
15694;BME280;7947;48.834;9.132;2022-07-29T05:11:37;97950.53;;;20.32;81.46
15694;BME280;7947;48.834;9.132;2022-07-29T05:14:41;97959.47;;;20.45;81.30
15694;BME280;7947;48.834;9.132;2022-07-29T05:17:44;97954.81;;;20.57;80.33
15694;BME280;7947;48.834;9.132;2022-07-29T05:20:47;97955.31;;;20.75;79.04
15694;BME280;7947;48.834;9.132;2022-07-29T05:23:50;97949.47;;;20.89;77.73
15694;BME280;7947;48.834;9.132;2022-07-29T05:26:53;97956.81;;;21.00;76.91
15694;BME280;7947;48.834;9.132;2022-07-29T05:29:58;97954.16;;;21.16;76.01
15694;BME280;7947;48.834;9.132;2022-07-29T05:33:00;97946.75;;;21.28;75.27
15694;BME280;7947;48.834;9.132;2022-07-29T05:36:04;97953.53;;;21.34;75.22
15694;BME280;7947;48.834;9.132;2022-07-29T05:39:08;97953.19;;;21.36;74.77
15694;BME280;7947;48.834;9.132;2022-07-29T05:42:11;97954.97;;;21.44;74.70
15694;BME280;7947;48.834;9.132;2022-07-29T05:45:16;97954.78;;;21.52;74.01
15694;BME280;7947;48.834;9.132;2022-07-29T05:48:18;97958.25;;;21.65;74.01
15694;BME280;7947;48.834;9.132;2022-07-29T05:51:22;97964.59;;;21.69;73.46
15694;BME280;7947;48.834;9.132;2022-07-29T05:54:24;97965.03;;;21.71;73.35
15694;BME280;7947;48.834;9.132;2022-07-29T05:57:27;97975.78;;;21.80;72.81
15694;BME280;7947;48.834;9.132;2022-07-29T06:00:31;97973.28;;;21.87;73.03
15694;BME280;7947;48.834;9.132;2022-07-29T06:03:34;97973.19;;;21.99;72.10
15694;BME280;7947;48.834;9.132;2022-07-29T06:06:39;97978.47;;;22.07;71.06
15694;BME280;7947;48.834;9.132;2022-07-29T06:09:42;97980.31;;;22.19;71.63
15694;BME280;7947;48.834;9.132;2022-07-29T06:12:45;97975.19;;;22.33;71.40
15694;BME280;7947;48.834;9.132;2022-07-29T06:15:49;97981.00;;;22.47;70.41
15694;BME280;7947;48.834;9.132;2022-07-29T06:18:52;97987.50;;;22.58;69.44
15694;BME280;7947;48.834;9.132;2022-07-29T06:21:54;97988.91;;;22.68;68.70
15694;BME280;7947;48.834;9.132;2022-07-29T06:24:58;97993.16;;;22.84;68.17
15694;BME280;7947;48.834;9.132;2022-07-29T06:28:00;97996.34;;;22.86;67.68
15694;BME280;7947;48.834;9.132;2022-07-29T06:31:05;97996.44;;;22.90;67.50
15694;BME280;7947;48.834;9.132;2022-07-29T06:34:10;97997.72;;;22.96;67.68
15694;BME280;7947;48.834;9.132;2022-07-29T06:37:13;97994.22;;;23.14;67.70
15694;BME280;7947;48.834;9.132;2022-07-29T06:40:17;97997.81;;;23.18;66.56
15694;BME280;7947;48.834;9.132;2022-07-29T06:43:39;97998.75;;;23.26;65.84
15694;BME280;7947;48.834;9.132;2022-07-29T06:46:56;98000.31;;;23.27;66.12
15694;BME280;7947;48.834;9.132;2022-07-29T06:49:59;98000.69;;;23.25;65.16
15694;BME280;7947;48.834;9.132;2022-07-29T06:53:02;98003.50;;;23.29;65.87
15694;BME280;7947;48.834;9.132;2022-07-29T06:56:07;98003.31;;;23.38;65.50
15694;BME280;7947;48.834;9.132;2022-07-29T06:59:11;98007.91;;;23.53;65.41
15694;BME280;7947;48.834;9.132;2022-07-29T07:02:15;98006.91;;;23.83;64.04
15694;BME280;7947;48.834;9.132;2022-07-29T07:05:18;98008.03;;;24.01;62.85
15694;BME280;7947;48.834;9.132;2022-07-29T07:08:22;98002.56;;;24.24;62.19
15694;BME280;7947;48.834;9.132;2022-07-29T07:11:25;98001.00;;;24.49;61.45
15694;BME280;7947;48.834;9.132;2022-07-29T07:14:28;98009.78;;;24.58;61.03
15694;BME280;7947;48.834;9.132;2022-07-29T07:17:32;98006.25;;;24.58;60.54
15694;BME280;7947;48.834;9.132;2022-07-29T07:20:35;98010.44;;;24.74;61.94
15694;BME280;7947;48.834;9.132;2022-07-29T07:23:38;98021.34;;;24.97;59.56
15694;BME280;7947;48.834;9.132;2022-07-29T07:26:41;98015.84;;;25.27;58.01
15694;BME280;7947;48.834;9.132;2022-07-29T07:29:44;98012.66;;;25.51;57.46
15694;BME280;7947;48.834;9.132;2022-07-29T07:32:48;98016.53;;;25.50;56.72
15694;BME280;7947;48.834;9.132;2022-07-29T07:35:51;98018.50;;;25.49;57.50
15694;BME280;7947;48.834;9.132;2022-07-29T07:38:54;98021.31;;;25.53;57.90
15694;BME280;7947;48.834;9.132;2022-07-29T07:41:56;98013.84;;;25.53;57.95
15694;BME280;7947;48.834;9.132;2022-07-29T07:44:59;98023.97;;;25.82;56.70
15694;BME280;7947;48.834;9.132;2022-07-29T07:48:15;98019.28;;;26.23;55.28
15694;BME280;7947;48.834;9.132;2022-07-29T07:51:19;98008.56;;;26.55;54.10
15694;BME280;7947;48.834;9.132;2022-07-29T07:54:22;98016.66;;;26.88;52.70
15694;BME280;7947;48.834;9.132;2022-07-29T07:57:25;98015.53;;;26.96;52.01
15694;BME280;7947;48.834;9.132;2022-07-29T08:00:28;98023.03;;;27.03;51.89
15694;BME280;7947;48.834;9.132;2022-07-29T08:03:32;98019.47;;;26.95;51.78
15694;BME280;7947;48.834;9.132;2022-07-29T08:06:35;98024.56;;;26.97;52.07
15694;BME280;7947;48.834;9.132;2022-07-29T08:09:38;98018.41;;;27.14;50.75
15694;BME280;7947;48.834;9.132;2022-07-29T08:12:41;98018.00;;;27.15;51.07
15694;BME280;7947;48.834;9.132;2022-07-29T08:15:44;98020.75;;;27.12;51.15
15694;BME280;7947;48.834;9.132;2022-07-29T08:18:48;98024.34;;;27.26;49.02
15694;BME280;7947;48.834;9.132;2022-07-29T08:21:52;98022.50;;;27.44;48.67
15694;BME280;7947;48.834;9.132;2022-07-29T08:24:56;98021.38;;;27.70;48.36
15694;BME280;7947;48.834;9.132;2022-07-29T08:27:58;98024.97;;;27.85;46.51
15694;BME280;7947;48.834;9.132;2022-07-29T08:31:01;98020.28;;;27.96;45.48
15694;BME280;7947;48.834;9.132;2022-07-29T08:34:06;98021.41;;;27.88;45.43
15694;BME280;7947;48.834;9.132;2022-07-29T08:37:08;98023.38;;;27.66;44.85
15694;BME280;7947;48.834;9.132;2022-07-29T08:40:11;98020.59;;;27.66;45.88
15694;BME280;7947;48.834;9.132;2022-07-29T08:43:15;98013.94;;;27.78;44.36
15694;BME280;7947;48.834;9.132;2022-07-29T08:46:19;98023.44;;;27.94;45.68
15694;BME280;7947;48.834;9.132;2022-07-29T08:49:23;98028.53;;;27.92;45.69
15694;BME280;7947;48.834;9.132;2022-07-29T08:52:27;98017.16;;;28.04;46.27
15694;BME280;7947;48.834;9.132;2022-07-29T08:55:32;98015.19;;;28.22;45.90
15694;BME280;7947;48.834;9.132;2022-07-29T08:58:35;98017.59;;;28.45;45.54
15694;BME280;7947;48.834;9.132;2022-07-29T09:01:39;98014.81;;;28.73;45.36
15694;BME280;7947;48.834;9.132;2022-07-29T09:04:47;98025.44;;;28.92;44.78
15694;BME280;7947;48.834;9.132;2022-07-29T09:07:50;98025.38;;;29.10;44.37
15694;BME280;7947;48.834;9.132;2022-07-29T09:10:54;98017.91;;;29.21;43.95
15694;BME280;7947;48.834;9.132;2022-07-29T09:13:57;98013.91;;;29.36;42.48
15694;BME280;7947;48.834;9.132;2022-07-29T09:17:00;98009.94;;;29.33;41.59
15694;BME280;7947;48.834;9.132;2022-07-29T09:20:10;98015.78;;;29.53;42.33
15694;BME280;7947;48.834;9.132;2022-07-29T09:23:13;98015.88;;;29.35;42.48
15694;BME280;7947;48.834;9.132;2022-07-29T09:26:28;98019.38;;;29.43;42.93
15694;BME280;7947;48.834;9.132;2022-07-29T09:29:31;98014.22;;;29.49;42.35
15694;BME280;7947;48.834;9.132;2022-07-29T09:32:55;98006.72;;;29.53;43.44
15694;BME280;7947;48.834;9.132;2022-07-29T09:36:02;98010.69;;;29.45;42.90
15694;BME280;7947;48.834;9.132;2022-07-29T09:39:06;98006.31;;;29.58;43.72
15694;BME280;7947;48.834;9.132;2022-07-29T09:42:10;98009.38;;;29.70;43.34
15694;BME280;7947;48.834;9.132;2022-07-29T09:45:26;98008.63;;;29.63;42.68
15694;BME280;7947;48.834;9.132;2022-07-29T09:48:29;98008.22;;;29.64;42.66
15694;BME280;7947;48.834;9.132;2022-07-29T09:51:34;97995.50;;;29.84;42.50
15694;BME280;7947;48.834;9.132;2022-07-29T09:54:39;97994.66;;;29.94;41.64
15694;BME280;7947;48.834;9.132;2022-07-29T09:57:42;97989.88;;;30.02;39.78
15694;BME280;7947;48.834;9.132;2022-07-29T10:00:46;97994.91;;;30.10;41.11
15694;BME280;7947;48.834;9.132;2022-07-29T10:03:51;97994.97;;;30.03;41.36
15694;BME280;7947;48.834;9.132;2022-07-29T10:06:58;97999.63;;;29.52;41.31
15694;BME280;7947;48.834;9.132;2022-07-29T10:10:05;97999.38;;;28.97;43.13
15694;BME280;7947;48.834;9.132;2022-07-29T10:13:11;98000.22;;;28.51;43.26
15694;BME280;7947;48.834;9.132;2022-07-29T10:16:17;98006.16;;;28.18;44.71
15694;BME280;7947;48.834;9.132;2022-07-29T10:19:20;98007.31;;;27.96;44.46
15694;BME280;7947;48.834;9.132;2022-07-29T10:22:24;98000.16;;;27.78;44.64
15694;BME280;7947;48.834;9.132;2022-07-29T10:25:47;97995.75;;;27.48;45.61
15694;BME280;7947;48.834;9.132;2022-07-29T10:28:50;97995.28;;;27.36;45.76
15694;BME280;7947;48.834;9.132;2022-07-29T10:32:04;97988.88;;;27.18;46.30
15694;BME280;7947;48.834;9.132;2022-07-29T10:35:17;97993.94;;;27.05;46.69
15694;BME280;7947;48.834;9.132;2022-07-29T10:42:00;97996.19;;;26.82;46.98
15694;BME280;7947;48.834;9.132;2022-07-29T10:45:06;97994.19;;;26.79;46.73
15694;BME280;7947;48.834;9.132;2022-07-29T10:48:09;97988.59;;;26.65;47.26
15694;BME280;7947;48.834;9.132;2022-07-29T10:51:15;97983.78;;;26.51;47.62
15694;BME280;7947;48.834;9.132;2022-07-29T10:54:19;97991.50;;;26.35;48.04
15694;BME280;7947;48.834;9.132;2022-07-29T10:58:10;98001.63;;;26.24;47.86
15694;BME280;7947;48.834;9.132;2022-07-29T11:01:29;97992.47;;;26.10;49.27
15694;BME280;7947;48.834;9.132;2022-07-29T11:05:01;98001.66;;;25.87;51.12
15694;BME280;7947;48.834;9.132;2022-07-29T11:08:23;97996.41;;;25.72;57.01
15694;BME280;7947;48.834;9.132;2022-07-29T11:11:31;98000.06;;;25.50;58.34
15694;BME280;7947;48.834;9.132;2022-07-29T11:14:55;98010.41;;;25.30;62.44
15694;BME280;7947;48.834;9.132;2022-07-29T11:18:08;98003.13;;;25.12;65.44
15694;BME280;7947;48.834;9.132;2022-07-29T11:21:35;98006.84;;;24.96;68.38
15694;BME280;7947;48.834;9.132;2022-07-29T11:25:12;98006.63;;;24.82;66.26
15694;BME280;7947;48.834;9.132;2022-07-29T11:28:19;98011.38;;;24.85;58.19
15694;BME280;7947;48.834;9.132;2022-07-29T11:31:36;98026.47;;;24.98;58.55
15694;BME280;7947;48.834;9.132;2022-07-29T11:34:40;98030.53;;;25.08;57.82
15694;BME280;7947;48.834;9.132;2022-07-29T11:37:43;98025.63;;;25.24;59.39
15694;BME280;7947;48.834;9.132;2022-07-29T11:41:20;98018.00;;;25.40;59.43
15694;BME280;7947;48.834;9.132;2022-07-29T11:44:53;98019.88;;;25.36;59.26
15694;BME280;7947;48.834;9.132;2022-07-29T11:48:00;98010.03;;;25.32;58.58
15694;BME280;7947;48.834;9.132;2022-07-29T11:51:22;98003.13;;;25.41;57.71
15694;BME280;7947;48.834;9.132;2022-07-29T11:54:34;98015.28;;;25.44;56.86
15694;BME280;7947;48.834;9.132;2022-07-29T11:57:58;98015.03;;;25.52;57.45
15694;BME280;7947;48.834;9.132;2022-07-29T12:01:05;98003.03;;;25.71;59.56
15694;BME280;7947;48.834;9.132;2022-07-29T12:04:09;98004.66;;;25.72;60.29
15694;BME280;7947;48.834;9.132;2022-07-29T12:07:14;97999.31;;;25.86;59.17
15694;BME280;7947;48.834;9.132;2022-07-29T12:10:17;97999.00;;;25.98;58.06
15694;BME280;7947;48.834;9.132;2022-07-29T12:13:38;97995.50;;;26.01;58.18
15694;BME280;7947;48.834;9.132;2022-07-29T12:16:41;97999.16;;;26.12;58.45
15694;BME280;7947;48.834;9.132;2022-07-29T12:19:45;97996.56;;;26.26;57.37
15694;BME280;7947;48.834;9.132;2022-07-29T12:22:51;98000.06;;;26.27;56.06
15694;BME280;7947;48.834;9.132;2022-07-29T12:25:58;97988.53;;;26.07;57.06
15694;BME280;7947;48.834;9.132;2022-07-29T12:29:01;97994.59;;;25.90;56.66
15694;BME280;7947;48.834;9.132;2022-07-29T12:32:09;97991.75;;;25.76;57.05
15694;BME280;7947;48.834;9.132;2022-07-29T12:35:18;97996.38;;;25.68;57.14
15694;BME280;7947;48.834;9.132;2022-07-29T12:38:22;98006.84;;;25.59;58.12
15694;BME280;7947;48.834;9.132;2022-07-29T12:41:27;98004.03;;;25.52;57.80
15694;BME280;7947;48.834;9.132;2022-07-29T12:44:43;98004.97;;;25.34;58.66
15694;BME280;7947;48.834;9.132;2022-07-29T12:47:53;98002.44;;;25.18;59.56
15694;BME280;7947;48.834;9.132;2022-07-29T12:50:59;98007.34;;;25.05;58.90
15694;BME280;7947;48.834;9.132;2022-07-29T12:54:07;98007.09;;;24.88;59.49
15694;BME280;7947;48.834;9.132;2022-07-29T12:57:12;98005.75;;;24.75;59.83
15694;BME280;7947;48.834;9.132;2022-07-29T13:00:23;98016.28;;;24.73;59.72
15694;BME280;7947;48.834;9.132;2022-07-29T13:03:26;98009.88;;;24.65;58.64
15694;BME280;7947;48.834;9.132;2022-07-29T13:06:38;98010.59;;;24.62;58.89
15694;BME280;7947;48.834;9.132;2022-07-29T13:09:43;98019.22;;;24.61;58.71
15694;BME280;7947;48.834;9.132;2022-07-29T13:13:08;98025.50;;;24.61;58.49
15694;BME280;7947;48.834;9.132;2022-07-29T13:16:11;98033.81;;;24.68;57.42
15694;BME280;7947;48.834;9.132;2022-07-29T13:19:14;98025.91;;;24.63;55.35
15694;BME280;7947;48.834;9.132;2022-07-29T13:22:20;98019.97;;;24.58;56.30
15694;BME280;7947;48.834;9.132;2022-07-29T13:25:24;98020.69;;;24.55;56.01
15694;BME280;7947;48.834;9.132;2022-07-29T13:28:27;98030.09;;;24.54;55.69
15694;BME280;7947;48.834;9.132;2022-07-29T13:31:30;98036.00;;;24.56;55.48
15694;BME280;7947;48.834;9.132;2022-07-29T13:34:33;98031.41;;;24.63;54.82
15694;BME280;7947;48.834;9.132;2022-07-29T13:37:37;98030.81;;;24.73;53.07
15694;BME280;7947;48.834;9.132;2022-07-29T13:40:40;98021.31;;;24.71;53.87
15694;BME280;7947;48.834;9.132;2022-07-29T13:43:43;98019.28;;;24.90;53.90
15694;BME280;7947;48.834;9.132;2022-07-29T13:46:50;98016.47;;;25.13;52.62
15694;BME280;7947;48.834;9.132;2022-07-29T13:49:53;98011.81;;;25.47;54.12
15694;BME280;7947;48.834;9.132;2022-07-29T13:52:57;98003.63;;;25.87;53.84
15694;BME280;7947;48.834;9.132;2022-07-29T13:56:00;97999.56;;;26.11;52.30
15694;BME280;7947;48.834;9.132;2022-07-29T13:59:03;98000.44;;;26.22;51.78
15694;BME280;7947;48.834;9.132;2022-07-29T14:02:06;97993.38;;;26.24;52.20
15694;BME280;7947;48.834;9.132;2022-07-29T14:05:08;97991.06;;;26.30;52.55
15694;BME280;7947;48.834;9.132;2022-07-29T14:08:13;97985.63;;;26.37;50.55
15694;BME280;7947;48.834;9.132;2022-07-29T14:11:16;97989.13;;;26.34;49.23
15694;BME280;7947;48.834;9.132;2022-07-29T14:14:19;97981.28;;;26.32;49.63
15694;BME280;7947;48.834;9.132;2022-07-29T14:17:22;97979.72;;;26.35;49.77
15694;BME280;7947;48.834;9.132;2022-07-29T14:20:25;97985.63;;;26.37;48.93
15694;BME280;7947;48.834;9.132;2022-07-29T14:23:31;97975.81;;;26.36;48.81
15694;BME280;7947;48.834;9.132;2022-07-29T14:26:34;97980.19;;;26.44;48.13
15694;BME280;7947;48.834;9.132;2022-07-29T14:29:37;97979.38;;;26.43;48.14
15694;BME280;7947;48.834;9.132;2022-07-29T14:32:40;97979.41;;;26.47;47.95
15694;BME280;7947;48.834;9.132;2022-07-29T14:35:44;97983.38;;;26.49;48.09
15694;BME280;7947;48.834;9.132;2022-07-29T14:38:49;97987.41;;;26.66;46.67
15694;BME280;7947;48.834;9.132;2022-07-29T14:41:52;97981.16;;;26.69;46.31
15694;BME280;7947;48.834;9.132;2022-07-29T14:44:55;97975.31;;;26.77;46.46
15694;BME280;7947;48.834;9.132;2022-07-29T14:47:58;97984.81;;;26.91;45.08
15694;BME280;7947;48.834;9.132;2022-07-29T14:51:01;97988.03;;;27.00;44.37
15694;BME280;7947;48.834;9.132;2022-07-29T14:54:07;97981.38;;;27.08;43.53
15694;BME280;7947;48.834;9.132;2022-07-29T14:57:10;97988.47;;;27.09;43.90
15694;BME280;7947;48.834;9.132;2022-07-29T15:00:14;97985.72;;;27.12;44.08
15694;BME280;7947;48.834;9.132;2022-07-29T15:03:17;97986.09;;;27.11;44.14
15694;BME280;7947;48.834;9.132;2022-07-29T15:06:24;97993.56;;;27.07;44.78
15694;BME280;7947;48.834;9.132;2022-07-29T15:09:29;97993.16;;;27.01;44.76
15694;BME280;7947;48.834;9.132;2022-07-29T15:12:31;97991.94;;;26.99;44.88
15694;BME280;7947;48.834;9.132;2022-07-29T15:15:34;97989.97;;;26.96;44.64
15694;BME280;7947;48.834;9.132;2022-07-29T15:18:37;97984.47;;;26.96;45.44
15694;BME280;7947;48.834;9.132;2022-07-29T15:21:40;97991.53;;;26.97;45.83
15694;BME280;7947;48.834;9.132;2022-07-29T15:25:01;97986.03;;;26.97;46.49
15694;BME280;7947;48.834;9.132;2022-07-29T15:28:04;97991.13;;;26.91;45.37
15694;BME280;7947;48.834;9.132;2022-07-29T15:31:09;97990.69;;;26.86;43.99
15694;BME280;7947;48.834;9.132;2022-07-29T15:34:11;97994.19;;;26.79;43.40
15694;BME280;7947;48.834;9.132;2022-07-29T15:37:14;97998.91;;;26.78;42.45
15694;BME280;7947;48.834;9.132;2022-07-29T15:40:18;97991.50;;;26.86;42.11
15694;BME280;7947;48.834;9.132;2022-07-29T15:43:21;98003.25;;;26.83;41.35
15694;BME280;7947;48.834;9.132;2022-07-29T15:46:26;97996.56;;;26.81;40.81
15694;BME280;7947;48.834;9.132;2022-07-29T15:49:47;97996.16;;;26.78;40.36
15694;BME280;7947;48.834;9.132;2022-07-29T15:52:50;97998.91;;;26.78;39.81
15694;BME280;7947;48.834;9.132;2022-07-29T15:55:55;97993.81;;;26.81;39.39
15694;BME280;7947;48.834;9.132;2022-07-29T15:58:58;97996.19;;;26.86;37.93
15694;BME280;7947;48.834;9.132;2022-07-29T16:02:01;97990.25;;;26.76;38.71
15694;BME280;7947;48.834;9.132;2022-07-29T16:05:05;98000.94;;;26.89;38.42
15694;BME280;7947;48.834;9.132;2022-07-29T16:08:10;97998.53;;;26.80;38.83
15694;BME280;7947;48.834;9.132;2022-07-29T16:11:14;98000.91;;;26.82;38.78
15694;BME280;7947;48.834;9.132;2022-07-29T16:14:17;97998.53;;;26.84;39.35
15694;BME280;7947;48.834;9.132;2022-07-29T16:17:19;97986.78;;;26.87;38.44
15694;BME280;7947;48.834;9.132;2022-07-29T16:20:22;97993.44;;;26.82;39.14
15694;BME280;7947;48.834;9.132;2022-07-29T16:23:25;97992.22;;;26.79;38.97
15694;BME280;7947;48.834;9.132;2022-07-29T16:26:30;98000.44;;;26.72;39.54
15694;BME280;7947;48.834;9.132;2022-07-29T16:29:33;98002.03;;;26.73;40.44
15694;BME280;7947;48.834;9.132;2022-07-29T16:32:37;97997.69;;;26.72;42.04
15694;BME280;7947;48.834;9.132;2022-07-29T16:35:40;97994.56;;;26.77;41.91
15694;BME280;7947;48.834;9.132;2022-07-29T16:38:43;97994.56;;;26.74;41.16
15694;BME280;7947;48.834;9.132;2022-07-29T16:41:49;97987.94;;;26.82;39.25
15694;BME280;7947;48.834;9.132;2022-07-29T16:45:00;97995.38;;;26.82;38.54
15694;BME280;7947;48.834;9.132;2022-07-29T16:48:04;97998.50;;;26.73;38.79
15694;BME280;7947;48.834;9.132;2022-07-29T16:51:07;98000.03;;;26.70;38.86
15694;BME280;7947;48.834;9.132;2022-07-29T16:54:15;98003.09;;;26.65;38.83
15694;BME280;7947;48.834;9.132;2022-07-29T16:57:20;97998.38;;;26.62;38.93
15694;BME280;7947;48.834;9.132;2022-07-29T17:00:24;98000.72;;;26.57;39.09
15694;BME280;7947;48.834;9.132;2022-07-29T17:03:28;98005.41;;;26.56;38.53
15694;BME280;7947;48.834;9.132;2022-07-29T17:06:32;97995.19;;;26.53;38.71
15694;BME280;7947;48.834;9.132;2022-07-29T17:09:37;97995.19;;;26.53;39.33
15694;BME280;7947;48.834;9.132;2022-07-29T17:12:43;98010.09;;;26.52;40.23
15694;BME280;7947;48.834;9.132;2022-07-29T17:15:46;98011.72;;;26.60;44.42
15694;BME280;7947;48.834;9.132;2022-07-29T17:18:51;98005.41;;;26.56;45.24
15694;BME280;7947;48.834;9.132;2022-07-29T17:21:56;98009.28;;;26.48;46.12
15694;BME280;7947;48.834;9.132;2022-07-29T17:25:11;98010.09;;;26.52;46.94
15694;BME280;7947;48.834;9.132;2022-07-29T17:28:23;98012.41;;;26.47;46.82
15694;BME280;7947;48.834;9.132;2022-07-29T17:31:28;98015.16;;;26.43;48.02